Time;durP1;ratioP1;P1;durP2;ratioP2;P2;SDS_P1;SDS_P2;PMS_P1;PMS_P2;Temp;Humidity;BMP_temperature;BMP_pressure;BME280_temperature;BME280_humidity;BME280_pressure;Samples;Min_cycle;Max_cycle;Signal;HPM_P1;HPM_P2
2023/11/09 00:00:26;;;;;;;2.65;2.20;;;;;;;1.89;100.00;97870.84;1224692;75;2924568;-65
2023/11/09 00:02:59;;;;;;;3.40;2.45;;;;;;;1.97;100.00;97865.34;1223887;75;2923820;-68
2023/11/09 00:05:32;;;;;;;2.50;2.10;;;;;;;2.00;100.00;97873.38;1224390;75;2921909;-68
2023/11/09 00:08:04;;;;;;;3.55;2.60;;;;;;;1.75;100.00;97867.63;1224275;75;2923892;-69
2023/11/09 00:10:37;;;;;;;3.25;2.40;;;;;;;1.81;100.00;97863.31;1223836;75;2935081;-67
2023/11/09 00:13:10;;;;;;;3.25;2.50;;;;;;;1.77;100.00;97859.91;1223169;75;2917443;-66
2023/11/09 00:15:45;;;;;;;3.50;2.55;;;;;;;1.79;100.00;97857.56;1224044;75;2924253;-68
2023/11/09 00:18:21;;;;;;;6.15;3.05;;;;;;;1.65;100.00;97853.16;1224232;75;2923665;-69
2023/11/09 00:20:54;;;;;;;3.65;2.85;;;;;;;1.75;100.00;97856.84;1224655;75;2922590;-68
2023/11/09 00:23:27;;;;;;;3.25;2.60;;;;;;;1.79;100.00;97850.22;1224189;75;2919175;-66
2023/11/09 00:26:01;;;;;;;3.95;2.55;;;;;;;1.71;100.00;97854.22;1222703;75;2940040;-68
2023/11/09 00:28:33;;;;;;;3.85;2.70;;;;;;;1.85;100.00;97856.69;1224085;75;2926144;-68
2023/11/09 00:31:08;;;;;;;3.35;2.35;;;;;;;1.74;100.00;97856.09;1222821;75;2924085;-67
2023/11/09 00:33:41;;;;;;;4.30;2.30;;;;;;;1.83;100.00;97855.56;1223839;75;2922030;-67
2023/11/09 00:36:14;;;;;;;2.40;1.80;;;;;;;1.80;100.00;97842.88;1224089;75;2931241;-67
2023/11/09 00:38:49;;;;;;;2.60;1.85;;;;;;;1.82;100.00;97837.84;1224423;75;2917004;-68
2023/11/09 00:41:22;;;;;;;2.60;1.80;;;;;;;1.71;100.00;97840.72;1223423;75;2921040;-68
2023/11/09 00:43:54;;;;;;;3.35;1.70;;;;;;;1.72;100.00;97823.34;1224720;75;2924635;-68
2023/11/09 00:46:29;;;;;;;2.85;1.70;;;;;;;1.77;100.00;97825.56;1224545;75;2933019;-70
2023/11/09 00:49:03;;;;;;;2.35;1.80;;;;;;;1.57;100.00;97827.47;1224987;75;2922979;-68
2023/11/09 00:51:35;;;;;;;1.85;1.70;;;;;;;1.61;100.00;97831.63;1223936;75;2919645;-68
2023/11/09 00:54:09;;;;;;;2.70;2.10;;;;;;;1.56;100.00;97826.69;1224600;75;2929554;-67
2023/11/09 00:56:41;;;;;;;2.20;1.70;;;;;;;1.55;100.00;97821.72;1224158;75;2919185;-68
2023/11/09 00:59:14;;;;;;;2.95;1.75;;;;;;;1.44;100.00;97811.88;1224943;75;2922732;-68
2023/11/09 01:01:49;;;;;;;2.15;1.90;;;;;;;1.55;100.00;97813.63;1224596;75;2922145;-67
2023/11/09 01:04:24;;;;;;;2.65;1.70;;;;;;;1.58;100.00;97812.78;1223830;75;2920464;-67
2023/11/09 01:06:57;;;;;;;2.35;1.65;;;;;;;1.44;100.00;97803.00;1225003;75;2930206;-69
2023/11/09 01:09:30;;;;;;;3.45;2.30;;;;;;;1.49;100.00;97814.09;1224530;75;2937586;-68
2023/11/09 01:12:02;;;;;;;3.70;2.85;;;;;;;1.21;100.00;97809.91;1225343;75;2925308;-66
2023/11/09 01:14:35;;;;;;;3.90;2.75;;;;;;;1.45;100.00;97802.59;1222938;75;2930619;-67
2023/11/09 01:17:11;;;;;;;3.05;2.35;;;;;;;1.45;100.00;97804.53;1225312;75;2939213;-68
2023/11/09 01:19:43;;;;;;;4.15;2.70;;;;;;;1.40;100.00;97797.66;1224583;75;2916474;-67
2023/11/09 01:22:16;;;;;;;3.20;2.30;;;;;;;1.43;100.00;97802.25;1223919;75;2924792;-67
2023/11/09 01:24:48;;;;;;;2.70;2.00;;;;;;;1.39;100.00;97804.22;1224599;75;2914483;-67
2023/11/09 01:27:21;;;;;;;2.10;1.75;;;;;;;1.38;100.00;97789.22;1224520;75;2919545;-68
2023/11/09 01:29:54;;;;;;;3.15;2.20;;;;;;;1.33;100.00;97786.25;1224472;75;2920459;-68
2023/11/09 01:32:29;;;;;;;2.75;2.10;;;;;;;1.17;100.00;97784.94;1225312;75;2917837;-68
2023/11/09 01:35:02;;;;;;;3.45;2.45;;;;;;;1.18;100.00;97781.06;1223782;75;2917713;-66
2023/11/09 01:37:34;;;;;;;4.20;2.70;;;;;;;1.10;100.00;97771.56;1225106;75;2938722;-67
2023/11/09 01:40:09;;;;;;;3.65;2.40;;;;;;;0.90;100.00;97768.78;1224782;75;2918877;-71
2023/11/09 01:42:45;;;;;;;3.75;2.60;;;;;;;0.86;100.00;97776.16;1224881;75;2922561;-69
2023/11/09 01:45:17;;;;;;;3.75;2.90;;;;;;;1.04;100.00;97768.56;1224264;75;2921321;-69
2023/11/09 01:47:53;;;;;;;3.65;2.40;;;;;;;1.15;100.00;97768.41;1224308;75;2926310;-66
2023/11/09 01:50:26;;;;;;;6.10;2.30;;;;;;;1.11;100.00;97766.91;1224720;75;2919105;-66
2023/11/09 01:52:59;;;;;;;3.10;2.00;;;;;;;0.86;100.00;97773.47;1224855;75;2919964;-68
2023/11/09 01:55:33;;;;;;;3.85;2.80;;;;;;;0.76;100.00;97783.22;1224026;75;2923517;-68
2023/11/09 01:58:07;;;;;;;4.30;2.70;;;;;;;1.00;100.00;97785.97;1224537;75;2919871;-68
2023/11/09 02:00:41;;;;;;;3.80;2.90;;;;;;;0.81;100.00;97784.69;1225126;75;2932924;-67
2023/11/09 02:03:17;;;;;;;3.40;2.85;;;;;;;0.89;100.00;97788.84;1225458;75;2929912;-67
2023/11/09 02:05:51;;;;;;;3.85;3.00;;;;;;;0.89;100.00;97779.97;1224779;67;2931962;-68
2023/11/09 02:08:24;;;;;;;3.45;2.90;;;;;;;0.87;100.00;97791.16;1225154;75;2928646;-68
2023/11/09 02:10:56;;;;;;;5.20;3.70;;;;;;;0.60;100.00;97783.06;1225149;75;2917690;-67
2023/11/09 02:13:29;;;;;;;6.05;4.15;;;;;;;0.51;100.00;97774.72;1224766;75;2923409;-68
2023/11/09 02:16:02;;;;;;;4.95;4.00;;;;;;;0.86;100.00;97773.47;1224477;75;2919841;-69
2023/11/09 02:18:38;;;;;;;4.65;3.40;;;;;;;0.82;100.00;97768.13;1224930;75;2925923;-68
2023/11/09 02:21:11;;;;;;;3.60;2.60;;;;;;;0.87;100.00;97768.81;1225020;75;2918378;-68
2023/11/09 02:23:46;;;;;;;4.05;2.05;;;;;;;0.93;100.00;97751.03;1225524;75;2903533;-71
2023/11/09 02:26:21;;;;;;;3.35;2.20;;;;;;;0.88;100.00;97752.25;1222384;75;2918802;-69
2023/11/09 02:28:56;;;;;;;2.90;2.05;;;;;;;0.85;100.00;97761.91;1220772;75;2903845;-63
2023/11/09 02:31:29;;;;;;;3.05;2.25;;;;;;;0.74;100.00;97747.84;1221364;75;2934214;-68
2023/11/09 02:34:03;;;;;;;3.00;2.10;;;;;;;0.82;100.00;97756.59;1222796;75;2927555;-65
2023/11/09 02:36:35;;;;;;;2.15;1.75;;;;;;;0.80;100.00;97756.25;1224220;75;2916623;-72
2023/11/09 02:39:11;;;;;;;2.20;1.95;;;;;;;0.74;100.00;97755.16;1225326;75;2914652;-66
2023/11/09 02:41:47;;;;;;;2.25;1.95;;;;;;;0.74;100.00;97752.47;1223764;75;2919806;-63
2023/11/09 02:44:19;;;;;;;2.10;1.85;;;;;;;0.77;100.00;97743.56;1223372;75;2915489;-69
2023/11/09 02:46:52;;;;;;;1.90;1.65;;;;;;;0.73;100.00;97740.94;1223504;75;2965301;-65
2023/11/09 02:49:25;;;;;;;2.40;1.80;;;;;;;0.72;100.00;97747.50;1224839;75;2922775;-66
2023/11/09 02:51:58;;;;;;;2.75;2.10;;;;;;;0.69;100.00;97742.16;1225059;75;2924482;-65
2023/11/09 02:54:30;;;;;;;2.45;1.60;;;;;;;0.70;100.00;97730.19;1223690;75;2922834;-72
2023/11/09 02:57:07;;;;;;;1.85;1.40;;;;;;;0.66;100.00;97726.81;1225057;75;2920849;-66
2023/11/09 02:59:40;;;;;;;2.00;1.60;;;;;;;0.67;100.00;97721.00;1225347;75;2915652;-66
2023/11/09 03:02:13;;;;;;;1.90;1.50;;;;;;;0.66;100.00;97718.72;1224930;75;2926938;-66
2023/11/09 03:04:46;;;;;;;2.10;1.45;;;;;;;0.64;100.00;97717.19;1224779;75;2918772;-68
2023/11/09 03:07:19;;;;;;;3.50;1.85;;;;;;;0.61;100.00;97714.56;1224460;75;2921125;-65
2023/11/09 03:09:52;;;;;;;2.35;1.80;;;;;;;0.61;100.00;97706.47;1224357;75;2916231;-66
2023/11/09 03:12:27;;;;;;;3.10;1.80;;;;;;;0.46;100.00;97708.63;1224751;75;2920107;-68
2023/11/09 03:15:00;;;;;;;3.85;2.35;;;;;;;0.47;100.00;97712.06;1224600;75;2918249;-64
2023/11/09 03:17:32;;;;;;;3.55;2.10;;;;;;;0.49;100.00;97707.81;1223265;75;2928065;-65
2023/11/09 03:20:05;;;;;;;3.70;2.70;;;;;;;0.24;100.00;97705.47;1224400;75;2930953;-67
2023/11/09 03:22:38;;;;;;;4.30;2.80;;;;;;;0.29;100.00;97701.53;1222573;75;2982935;-67
2023/11/09 03:25:12;;;;;;;4.40;2.65;;;;;;;0.27;100.00;97701.94;1224133;75;2922916;-69
2023/11/09 03:27:47;;;;;;;4.55;2.85;;;;;;;0.40;100.00;97697.53;1220485;75;3102959;-65
2023/11/09 03:30:20;;;;;;;2.75;2.20;;;;;;;0.39;100.00;97689.88;1223987;75;2917806;-64
2023/11/09 03:32:53;;;;;;;2.80;2.15;;;;;;;0.42;100.00;97694.44;1224181;75;2925939;-69
2023/11/09 03:35:26;;;;;;;3.90;2.20;;;;;;;0.39;100.00;97687.94;1224344;75;2934637;-66
2023/11/09 03:37:58;;;;;;;2.35;1.70;;;;;;;0.37;100.00;97695.66;1224183;75;2923558;-68
2023/11/09 03:40:31;;;;;;;2.95;2.10;;;;;;;0.38;100.00;97694.47;1224199;75;2920595;-68
2023/11/09 03:43:06;;;;;;;2.95;2.20;;;;;;;0.36;100.00;97688.75;1224144;75;2925958;-67
2023/11/09 03:45:39;;;;;;;2.95;2.20;;;;;;;0.30;100.00;97686.91;1224513;75;2943783;-68
2023/11/09 03:48:12;;;;;;;2.50;2.05;;;;;;;0.23;100.00;97695.09;1223902;75;2934574;-67
2023/11/09 03:50:45;;;;;;;2.95;2.20;;;;;;;0.06;100.00;97689.53;1224690;75;2922479;-68
2023/11/09 03:53:18;;;;;;;3.60;2.30;;;;;;;-0.04;100.00;97685.81;1224765;75;2921553;-64
2023/11/09 03:55:51;;;;;;;4.40;2.80;;;;;;;-0.12;100.00;97683.59;1223935;75;2922426;-69
2023/11/09 03:58:26;;;;;;;5.35;3.65;;;;;;;0.09;100.00;97685.25;1223912;75;2921099;-67
2023/11/09 04:00:59;;;;;;;5.65;3.00;;;;;;;0.12;100.00;97682.53;1223770;75;2918458;-64
2023/11/09 04:03:31;;;;;;;5.60;3.55;;;;;;;0.15;100.00;97675.59;1224163;75;2917256;-69
2023/11/09 04:06:04;;;;;;;5.95;3.20;;;;;;;0.15;100.00;97672.88;1224217;75;2920103;-65
2023/11/09 04:08:36;;;;;;;4.30;2.35;;;;;;;0.27;100.00;97672.34;1224390;75;2929271;-67
2023/11/09 04:11:09;;;;;;;3.75;2.40;;;;;;;0.25;100.00;97666.59;1223861;75;2928949;-66
2023/11/09 04:13:44;;;;;;;4.15;2.60;;;;;;;0.11;100.00;97669.47;1222994;75;2931714;-62
2023/11/09 04:16:17;;;;;;;3.45;2.40;;;;;;;0.19;100.00;97665.50;1223516;75;2924209;-64
2023/11/09 04:18:50;;;;;;;3.45;2.40;;;;;;;0.04;100.00;97656.13;1224160;75;2916869;-66
2023/11/09 04:21:23;;;;;;;3.65;2.30;;;;;;;0.12;100.00;97660.22;1224636;75;2921903;-67
2023/11/09 04:23:55;;;;;;;3.40;2.35;;;;;;;0.16;100.00;97652.88;1223255;75;2923029;-68
2023/11/09 04:26:32;;;;;;;2.45;2.00;;;;;;;0.16;100.00;97652.88;1224631;75;2890398;-68
2023/11/09 04:29:10;;;;;;;3.60;2.50;;;;;;;0.18;100.00;97653.97;1224170;75;2925718;-65
2023/11/09 04:31:47;;;;;;;3.50;2.40;;;;;;;0.15;100.00;97640.59;1224108;75;2933115;-64
2023/11/09 04:34:20;;;;;;;3.45;2.60;;;;;;;0.10;100.00;97649.13;1224188;75;2918575;-64
2023/11/09 04:36:52;;;;;;;5.45;3.20;;;;;;;-0.07;100.00;97651.63;1223876;75;2932500;-63
2023/11/09 04:39:31;;;;;;;5.10;3.25;;;;;;;0.09;100.00;97645.66;1224070;75;2932009;-64
2023/11/09 04:42:04;;;;;;;4.30;2.70;;;;;;;0.10;100.00;97633.72;1225341;75;2905734;-63
2023/11/09 04:44:40;;;;;;;3.90;2.45;;;;;;;0.01;100.00;97632.72;1221757;75;3000620;-66
2023/11/09 04:47:13;;;;;;;4.60;2.80;;;;;;;0.05;100.00;97638.78;1224230;75;2925105;-65
2023/11/09 04:49:57;;;;;;;2.80;1.95;;;;;;;0.07;100.00;97631.06;1224327;75;2921346;-65
2023/11/09 04:52:31;;;;;;;2.70;1.95;;;;;;;-0.04;100.00;97634.69;1225263;75;2922616;-65
2023/11/09 04:55:10;;;;;;;2.85;2.00;;;;;;;-0.11;100.00;97626.69;1223628;75;2932977;-67
2023/11/09 05:08:46;;;;;;;2.70;1.80;;;;;;;0.01;100.00;97621.94;1225405;75;2917623;-68
2023/11/09 05:11:19;;;;;;;2.45;2.20;;;;;;;0.00;100.00;97602.34;1224321;75;2925140;-62
2023/11/09 05:13:52;;;;;;;2.90;2.30;;;;;;;-0.01;100.00;97616.97;1223976;75;2924673;-64
2023/11/09 05:16:27;;;;;;;5.25;4.10;;;;;;;-0.08;100.00;97617.81;1223891;75;2928280;-63
2023/11/09 05:18:59;;;;;;;8.10;5.90;;;;;;;-0.09;100.00;97618.22;1224239;75;2919520;-66
2023/11/09 05:21:32;;;;;;;9.00;6.15;;;;;;;-0.17;100.00;97622.16;1224303;75;2918633;-67
2023/11/09 05:24:05;;;;;;;11.00;7.40;;;;;;;-0.14;100.00;97618.69;1224057;75;2920494;-67
2023/11/09 05:26:39;;;;;;;11.50;7.95;;;;;;;-0.11;100.00;97617.88;1222700;75;2922513;-67
2023/11/09 05:29:12;;;;;;;15.30;9.45;;;;;;;-0.26;100.00;97622.69;1223214;75;2933995;-66
2023/11/09 05:31:50;;;;;;;16.15;10.65;;;;;;;-0.44;100.00;97622.88;1224855;75;2938406;-67
2023/11/09 05:34:22;;;;;;;14.20;9.80;;;;;;;-0.19;100.00;97629.88;1223078;75;2928904;-65
2023/11/09 05:36:58;;;;;;;14.60;9.90;;;;;;;-0.49;100.00;97620.66;1206575;75;4243081;-66
2023/11/09 05:39:31;;;;;;;21.10;13.90;;;;;;;-0.49;100.00;97623.34;1221185;75;2988556;-70
2023/11/09 05:42:04;;;;;;;16.75;11.10;;;;;;;-0.30;100.00;97620.03;1223951;75;2929226;-68
2023/11/09 05:44:37;;;;;;;15.20;9.60;;;;;;;-0.22;100.00;97616.09;1223854;75;2922240;-67
2023/11/09 05:47:12;;;;;;;12.45;8.35;;;;;;;-0.20;100.00;97615.66;1224120;75;2931196;-70
2023/11/09 05:49:45;;;;;;;9.60;6.75;;;;;;;-0.22;100.00;97612.63;1224049;75;2916714;-67
2023/11/09 05:52:18;;;;;;;9.05;6.65;;;;;;;-0.26;100.00;97607.28;1223136;75;2925216;-69
2023/11/09 05:54:51;;;;;;;7.95;5.50;;;;;;;-0.26;100.00;97614.63;1223481;75;2925454;-67
2023/11/09 05:57:24;;;;;;;9.50;5.95;;;;;;;-0.18;100.00;97605.28;1224077;75;2920644;-65
2023/11/09 05:59:56;;;;;;;7.00;5.20;;;;;;;-0.15;100.00;97609.06;1222746;75;2922744;-69
2023/11/09 06:02:32;;;;;;;5.20;4.00;;;;;;;-0.25;100.00;97610.75;1222824;75;2933530;-63
2023/11/09 06:05:06;;;;;;;5.05;3.40;;;;;;;-0.34;100.00;97613.16;1224437;75;2924750;-63
2023/11/09 06:07:39;;;;;;;6.15;3.35;;;;;;;-0.26;100.00;97622.69;1223752;75;2926355;-64
2023/11/09 06:10:14;;;;;;;3.75;3.25;;;;;;;-0.23;100.00;97608.41;1223940;75;2926229;-71
2023/11/09 06:12:46;;;;;;;5.00;2.90;;;;;;;-0.06;100.00;97620.09;1224036;75;2918256;-63
2023/11/09 06:15:20;;;;;;;3.50;2.60;;;;;;;-0.12;100.00;97610.94;1224010;75;2932260;-67
2023/11/09 06:17:55;;;;;;;2.95;2.65;;;;;;;-0.23;100.00;97603.03;1222182;75;2964040;-70
2023/11/09 06:20:30;;;;;;;2.90;2.45;;;;;;;-0.07;100.00;97611.28;1224120;75;2921911;-68
2023/11/09 06:23:02;;;;;;;3.40;2.80;;;;;;;-0.11;100.00;97610.56;1223935;75;2928786;-67
2023/11/09 06:25:35;;;;;;;3.55;2.80;;;;;;;-0.18;100.00;97609.91;1223888;75;2922116;-66
2023/11/09 06:28:08;;;;;;;3.25;2.75;;;;;;;-0.03;100.00;97606.59;1223926;75;2926707;-71
2023/11/09 06:30:41;;;;;;;3.65;2.65;;;;;;;0.08;100.00;97603.75;1224474;75;2928295;-65
2023/11/09 06:33:16;;;;;;;3.55;2.55;;;;;;;0.28;100.00;97600.41;1224876;75;2923965;-68
2023/11/09 06:35:49;;;;;;;3.85;2.85;;;;;;;0.25;100.00;97601.22;1224098;75;2922633;-65
2023/11/09 06:38:22;;;;;;;3.35;2.55;;;;;;;0.48;100.00;97593.16;1223620;75;2926908;-68
2023/11/09 06:40:55;;;;;;;4.20;3.00;;;;;;;0.97;100.00;97590.03;1224260;75;2928221;-65
2023/11/09 06:43:27;;;;;;;4.00;3.25;;;;;;;3.77;100.00;97593.09;1222715;75;2961876;-67
2023/11/09 06:46:00;;;;;;;4.65;3.30;;;;;;;5.27;96.95;97594.97;1223051;75;2976442;-69
2023/11/09 06:48:35;;;;;;;6.80;4.75;;;;;;;6.61;86.95;97590.34;1220824;75;3070836;-70
2023/11/09 06:51:09;;;;;;;6.95;4.55;;;;;;;8.10;76.42;97586.25;1224476;75;2925731;-67
2023/11/09 06:53:41;;;;;;;5.90;4.10;;;;;;;9.57;68.31;97592.72;1224837;75;2929735;-66
2023/11/09 06:56:14;;;;;;;6.85;4.60;;;;;;;9.05;69.71;97590.31;1224520;75;2924003;-67
2023/11/09 06:58:47;;;;;;;7.10;5.50;;;;;;;9.18;69.36;97584.59;1224431;75;2922307;-65
2023/11/09 07:01:19;;;;;;;6.40;4.45;;;;;;;12.06;61.89;97584.47;1224354;75;2921720;-67
2023/11/09 07:03:57;;;;;;;5.20;3.50;;;;;;;13.11;57.76;97571.06;1223742;75;2922718;-70
2023/11/09 07:06:31;;;;;;;3.45;3.00;;;;;;;14.51;52.87;97569.66;1224461;75;2911767;-68
2023/11/09 07:09:04;;;;;;;4.75;3.40;;;;;;;15.07;49.53;97568.75;1224463;75;2921717;-67
2023/11/09 07:11:41;;;;;;;5.10;3.50;;;;;;;14.69;50.40;97565.63;1221416;75;3015225;-67
2023/11/09 07:14:15;;;;;;;6.05;4.05;;;;;;;12.85;52.86;97568.47;1223630;75;2924811;-65
2023/11/09 07:16:48;;;;;;;5.95;4.10;;;;;;;12.81;52.88;97572.69;1223754;75;2933057;-69
2023/11/09 07:19:25;;;;;;;5.80;3.95;;;;;;;15.71;47.33;97566.66;1223628;75;2925934;-67
2023/11/09 07:21:58;;;;;;;5.30;3.60;;;;;;;16.98;44.68;97553.38;1224903;75;2920992;-66
2023/11/09 07:24:35;;;;;;;5.70;3.50;;;;;;;17.60;42.85;97555.28;1222137;75;2946617;-67
2023/11/09 07:27:09;;;;;;;6.55;3.90;;;;;;;17.14;43.50;97553.69;1223454;75;2928286;-68
2023/11/09 07:29:43;;;;;;;7.35;4.05;;;;;;;11.94;52.87;97567.16;1223518;75;2920894;-68
2023/11/09 07:32:16;;;;;;;8.55;4.55;;;;;;;12.27;53.42;97563.16;1223767;75;2925544;-67
2023/11/09 07:34:51;;;;;;;6.30;4.20;;;;;;;12.25;53.73;97565.66;1224546;75;2921867;-65
2023/11/09 07:37:24;;;;;;;6.10;4.00;;;;;;;13.56;49.79;97553.94;1203163;75;4526344;-66
2023/11/09 07:39:57;;;;;;;8.50;4.40;;;;;;;10.92;55.58;97569.38;1224306;75;2849146;-64
2023/11/09 07:42:31;;;;;;;8.00;4.60;;;;;;;13.15;51.83;97552.31;1207044;75;4165283;-67
2023/11/09 07:45:06;;;;;;;6.90;5.00;;;;;;;13.47;51.47;97554.94;1224364;75;2933509;-68
2023/11/09 07:47:38;;;;;;;7.40;4.20;;;;;;;14.55;48.97;97550.13;1223734;75;2921449;-67
2023/11/09 07:50:16;;;;;;;6.15;4.00;;;;;;;15.69;47.97;97544.28;1208762;75;4038091;-67
2023/11/09 07:52:49;;;;;;;4.65;3.40;;;;;;;14.38;48.68;97548.16;1223543;75;2921501;-64
2023/11/09 07:55:22;;;;;;;6.35;3.75;;;;;;;15.62;47.43;97547.59;1222919;75;2924303;-68
2023/11/09 07:58:01;;;;;;;8.60;3.80;;;;;;;15.12;48.74;97548.66;1223717;75;2925797;-70
2023/11/09 08:00:33;;;;;;;7.70;4.15;;;;;;;15.23;48.07;97542.34;1224927;75;2920757;-74
2023/11/09 08:03:09;;;;;;;4.65;3.00;;;;;;;15.11;48.52;97538.91;1224039;75;2923504;-66
2023/11/09 08:05:44;;;;;;;5.65;3.80;;;;;;;13.89;50.73;97542.19;1221322;75;2927533;-73
2023/11/09 08:08:17;;;;;;;5.90;4.00;;;;;;;12.25;53.56;97542.94;1221663;75;2942772;-66
2023/11/09 08:10:50;;;;;;;7.80;4.40;;;;;;;11.99;54.51;97540.28;1223225;75;2922453;-68
2023/11/09 08:13:23;;;;;;;10.40;5.05;;;;;;;9.94;60.43;97545.88;1223871;75;2916513;-69
2023/11/09 08:15:59;;;;;;;7.30;5.00;;;;;;;10.14;60.68;97547.91;1223027;75;2926956;-67
2023/11/09 08:18:32;;;;;;;5.40;4.25;;;;;;;10.54;60.26;97530.09;1222593;75;2923922;-69
2023/11/09 08:21:09;;;;;;;6.00;4.55;;;;;;;11.69;59.70;97530.31;1223631;75;2922311;-66
2023/11/09 08:23:42;;;;;;;6.60;4.15;;;;;;;10.85;61.48;97530.22;1223690;75;2922607;-70
2023/11/09 08:26:14;;;;;;;6.50;4.80;;;;;;;8.94;65.84;97535.47;1223344;75;2928862;-66
2023/11/09 08:28:47;;;;;;;7.60;5.15;;;;;;;9.16;66.18;97530.44;1222119;75;2920240;-68
2023/11/09 08:31:21;;;;;;;9.00;5.10;;;;;;;7.99;71.94;97536.94;1224717;75;2918640;-71
2023/11/09 08:33:54;;;;;;;7.50;5.10;;;;;;;8.52;70.50;97528.22;1225029;75;2923357;-70
2023/11/09 08:36:30;;;;;;;6.30;4.50;;;;;;;9.07;69.83;97524.31;1223416;75;2936515;-68
2023/11/09 08:39:03;;;;;;;14.20;5.30;;;;;;;8.20;71.90;97519.56;1224535;75;2919487;-66
2023/11/09 08:41:35;;;;;;;7.80;4.90;;;;;;;7.37;75.13;97524.56;1223266;75;2923800;-70
2023/11/09 08:44:10;;;;;;;9.75;5.20;;;;;;;8.54;74.18;97514.84;1224108;75;2919687;-68
2023/11/09 08:46:43;;;;;;;11.55;5.20;;;;;;;7.67;75.01;97514.63;1222676;75;2927068;-68
2023/11/09 08:49:16;;;;;;;7.30;4.70;;;;;;;8.93;71.65;97523.81;1212066;75;3836790;-66
2023/11/09 08:51:52;;;;;;;8.30;4.95;;;;;;;7.68;74.35;97516.91;1223055;75;2924829;-69
2023/11/09 08:54:26;;;;;;;6.50;4.50;;;;;;;7.44;76.88;97513.34;1224828;75;2926457;-68
2023/11/09 08:56:59;;;;;;;8.80;5.05;;;;;;;7.36;78.21;97514.88;1224801;75;2912161;-68
2023/11/09 08:59:34;;;;;;;6.70;4.85;;;;;;;7.36;77.30;97512.16;1223471;75;2921025;-68
2023/11/09 09:02:09;;;;;;;5.20;4.05;;;;;;;8.29;74.91;97502.38;1223153;75;2914702;-64
2023/11/09 09:04:42;;;;;;;7.70;4.55;;;;;;;8.30;74.87;97507.41;1223413;75;2922708;-66
2023/11/09 09:07:17;;;;;;;9.25;4.80;;;;;;;9.46;70.66;97492.19;1222709;75;2925037;-65
2023/11/09 09:09:50;;;;;;;4.95;3.75;;;;;;;10.19;66.62;97501.47;1223131;75;2938719;-65
2023/11/09 09:12:23;;;;;;;9.20;5.80;;;;;;;10.38;65.37;97499.28;1222269;75;2928152;-69
2023/11/09 09:14:57;;;;;;;8.10;4.90;;;;;;;11.57;63.19;97495.03;1207445;75;3946503;-66
2023/11/09 09:17:30;;;;;;;6.05;4.00;;;;;;;12.05;61.70;97497.94;1222343;75;2920643;-68
2023/11/09 09:20:04;;;;;;;6.35;4.30;;;;;;;12.43;59.37;97486.88;1222604;75;2931749;-68
2023/11/09 09:22:39;;;;;;;5.00;3.85;;;;;;;12.55;60.30;97491.94;1223447;75;2916058;-67
2023/11/09 09:25:14;;;;;;;6.10;3.80;;;;;;;12.72;58.42;97497.50;1222893;75;2914825;-69
2023/11/09 09:27:48;;;;;;;7.20;4.70;;;;;;;11.92;60.70;97492.09;1223763;75;2926181;-66
2023/11/09 09:30:25;;;;;;;5.15;3.45;;;;;;;12.93;58.01;97491.81;1222963;75;2924911;-68
2023/11/09 09:32:59;;;;;;;6.70;4.30;;;;;;;13.88;54.77;97493.16;1223432;75;2919527;-67
2023/11/09 09:35:32;;;;;;;8.80;6.35;;;;;;;13.80;55.30;97488.16;1222731;75;2927401;-68
2023/11/09 09:38:07;;;;;;;24.50;16.45;;;;;;;14.39;55.10;97483.56;1222673;75;2944074;-66
2023/11/09 09:40:43;;;;;;;12.80;7.65;;;;;;;13.32;55.16;97471.91;1217011;75;2921196;-71
2023/11/09 09:43:19;;;;;;;8.65;4.95;;;;;;;14.06;55.34;97473.38;1211807;83;2921492;-69
2023/11/09 09:45:59;;;;;;;5.85;3.55;;;;;;;14.05;54.16;97472.63;1223876;75;2922690;-67
2023/11/09 09:48:33;;;;;;;6.05;4.10;;;;;;;13.75;56.11;97469.66;1222012;75;2920910;-69
2023/11/09 09:51:11;;;;;;;3.85;2.80;;;;;;;15.47;53.05;97462.44;1222920;75;2926241;-70
2023/11/09 09:53:46;;;;;;;4.30;3.40;;;;;;;14.17;54.09;97459.59;1223645;75;2920099;-68
2023/11/09 09:56:21;;;;;;;4.65;3.25;;;;;;;14.93;52.65;97448.53;1222879;75;2930280;-65
2023/11/09 09:58:56;;;;;;;4.10;2.95;;;;;;;15.77;51.13;97445.91;1222605;75;2926572;-71
2023/11/09 10:01:29;;;;;;;6.55;3.95;;;;;;;14.66;52.30;97442.66;1222088;75;2918923;-66
2023/11/09 10:04:04;;;;;;;4.30;3.30;;;;;;;15.06;51.21;97440.44;1223105;75;2916919;-69
2023/11/09 10:06:37;;;;;;;4.10;2.70;;;;;;;15.31;51.22;97432.97;1224357;75;2923188;-69
2023/11/09 10:09:14;;;;;;;3.75;2.80;;;;;;;15.46;51.29;97429.84;1224976;75;2915808;-70
2023/11/09 10:11:47;;;;;;;3.90;2.50;;;;;;;16.35;51.01;97433.75;1221649;75;2948283;-68
2023/11/09 10:14:23;;;;;;;3.35;2.50;;;;;;;16.97;49.03;97435.00;1223927;75;2918566;-69
2023/11/09 10:16:55;;;;;;;4.80;3.00;;;;;;;15.04;52.01;97435.44;1223094;75;2927164;-70
2023/11/09 10:19:28;;;;;;;6.95;3.50;;;;;;;14.07;53.68;97428.09;1224567;75;2922113;-69
2023/11/09 10:22:05;;;;;;;5.25;3.45;;;;;;;12.69;56.64;97421.56;1224193;75;2925714;-71
2023/11/09 10:24:45;;;;;;;6.40;3.80;;;;;;;12.71;57.86;97418.34;1224849;67;2914761;-71
2023/11/09 10:27:18;;;;;;;6.30;3.30;;;;;;;12.56;58.08;97415.81;1224087;75;2922864;-68
2023/11/09 10:29:53;;;;;;;6.85;3.25;;;;;;;12.87;58.39;97406.66;1223163;75;2919717;-71
2023/11/09 10:32:26;;;;;;;3.80;2.65;;;;;;;14.67;54.75;97414.59;1223250;75;2915683;-70
2023/11/09 10:35:01;;;;;;;4.15;2.60;;;;;;;14.79;54.56;97406.25;1224668;75;2920916;-70
2023/11/09 10:37:37;;;;;;;5.65;2.80;;;;;;;13.16;59.29;97401.94;1223890;75;2925443;-69
2023/11/09 10:40:15;;;;;;;4.70;2.70;;;;;;;13.40;57.03;97398.69;1224607;75;2924329;-68
2023/11/09 10:42:48;;;;;;;5.20;2.60;;;;;;;13.43;56.89;97397.69;1224512;75;2924743;-68
2023/11/09 10:45:22;;;;;;;4.05;2.45;;;;;;;14.13;56.80;97393.03;1222945;75;2930857;-69
2023/11/09 10:47:58;;;;;;;16.80;13.10;;;;;;;13.94;55.64;97386.59;1224238;75;2925567;-68
2023/11/09 10:50:32;;;;;;;7.45;4.85;;;;;;;13.81;55.71;97387.13;1224550;75;2924099;-69
2023/11/09 10:53:06;;;;;;;5.35;2.70;;;;;;;14.07;56.08;97381.31;1222544;75;2943058;-67
2023/11/09 10:55:43;;;;;;;3.10;2.20;;;;;;;14.33;54.68;97377.44;1222259;75;2922708;-67
2023/11/09 10:58:20;;;;;;;4.15;2.20;;;;;;;14.95;53.87;97371.59;1224409;75;2922786;-68
2023/11/09 11:00:57;;;;;;;3.15;1.85;;;;;;;16.05;52.30;97364.81;1223613;75;2922997;-69
2023/11/09 11:03:33;;;;;;;4.50;2.75;;;;;;;15.12;52.77;97367.44;1223767;75;2919132;-68
2023/11/09 11:06:11;;;;;;;4.35;2.30;;;;;;;13.94;55.69;97364.56;1224109;75;2858514;-67
2023/11/09 11:08:44;;;;;;;;;;;;;;;14.63;54.27;97363.78;1226113;75;2926510;-66
2023/11/09 11:11:25;;;;;;;3.50;2.10;;;;;;;14.01;55.67;97358.56;1224948;75;2929214;-65
2023/11/09 11:14:04;;;;;;;3.85;2.20;;;;;;;14.95;54.47;97361.31;1223180;75;2928861;-69
2023/11/09 11:17:15;;;;;;;2.40;2.00;;;;;;;14.97;53.12;97358.78;1224485;75;2918349;-65
2023/11/09 11:20:26;;;;;;;3.95;2.40;;;;;;;14.96;54.19;97345.50;1223945;75;2922808;-66
2023/11/09 11:23:45;;;;;;;2.70;1.85;;;;;;;14.13;54.65;97343.47;1224583;75;2924873;-70
2023/11/09 11:26:23;;;;;;;3.35;2.50;;;;;;;14.30;55.22;97351.66;1223975;75;2920714;-71
2023/11/09 11:29:00;;;;;;;6.30;3.00;;;;;;;14.20;56.21;97350.47;1223811;75;2920065;-69
2023/11/09 11:31:38;;;;;;;4.50;2.80;;;;;;;14.89;53.75;97346.84;1223443;75;2922704;-66
2023/11/09 11:34:12;;;;;;;3.10;2.10;;;;;;;14.27;55.37;97338.91;1224380;75;2925700;-71
2023/11/09 11:36:49;;;;;;;2.95;1.90;;;;;;;15.04;53.21;97336.19;1222190;75;2924732;-69
2023/11/09 11:39:38;;;;;;;3.35;1.70;;;;;;;15.50;53.09;97331.75;1224367;75;2927912;-68
2023/11/09 11:42:25;;;;;;;3.45;1.80;;;;;;;15.46;53.11;97325.03;1223594;75;2918643;-69
2023/11/09 11:45:00;;;;;;;3.45;2.30;;;;;;;14.67;54.01;97326.44;1222338;75;3010544;-69
2023/11/09 11:47:33;;;;;;;3.30;2.20;;;;;;;15.21;53.29;97324.25;1223946;75;2922190;-67
2023/11/09 11:50:10;;;;;;;2.85;1.60;;;;;;;16.09;52.14;97325.84;1224832;75;2924256;-73
2023/11/09 11:52:42;;;;;;;3.55;2.00;;;;;;;15.94;52.39;97318.75;1224128;75;2921314;-70
2023/11/09 11:55:20;;;;;;;3.60;2.10;;;;;;;16.19;52.16;97318.69;1223603;75;2923211;-69
2023/11/09 11:58:15;;;;;;;2.60;1.40;;;;;;;17.72;49.15;97314.25;1224155;75;2923677;-68
2023/11/09 12:00:50;;;;;;;2.90;2.05;;;;;;;16.88;50.23;97313.72;1223888;75;2920030;-72